Time;durP1;ratioP1;P1;durP2;ratioP2;P2;SDS_P1;SDS_P2;PMS_P1;PMS_P2;Temp;Humidity;BMP_temperature;BMP_pressure;BME280_temperature;BME280_humidity;BME280_pressure;Samples;Min_cycle;Max_cycle;Signal;HPM_P1;HPM_P2
2024/02/13 00:00:14;;;;;;;7.13;4.70;;;;;;;;;;601940;23;1115;-81
2024/02/13 00:00:30;;;;;;;6.57;4.38;;;;;;;;;;601489;23;852;-80
2024/02/13 00:00:46;;;;;;;7.27;4.30;;;;;;;;;;598977;23;993;-80
2024/02/13 00:01:01;;;;;;;8.00;4.43;;;;;;;;;;599843;23;812;-81
2024/02/13 00:01:17;;;;;;;7.60;4.30;;;;;;;;;;596105;23;1052;-80
2024/02/13 00:01:39;;;;;;;8.18;4.43;;;;;;;;;;594324;23;1480;-81
2024/02/13 00:01:54;;;;;;;7.68;4.65;;;;;;;;;;599775;23;1271;-80
2024/02/13 00:02:10;;;;;;;6.82;4.13;;;;;;;;;;602060;23;1271;-80
2024/02/13 00:02:26;;;;;;;6.33;3.90;;;;;;;;;;602403;23;1093;-79
2024/02/13 00:02:42;;;;;;;7.28;3.92;;;;;;;;;;602284;23;1136;-79
2024/02/13 00:02:57;;;;;;;7.97;4.00;;;;;;;;;;598835;23;1022;-81
2024/02/13 00:03:13;;;;;;;10.40;4.47;;;;;;;;;;601830;23;1431;-80
2024/02/13 00:03:29;;;;;;;11.10;5.05;;;;;;;;;;600351;23;1199;-80
2024/02/13 00:03:44;;;;;;;7.47;4.80;;;;;;;;;;602508;23;1659;-80
2024/02/13 00:04:00;;;;;;;7.35;4.70;;;;;;;;;;602331;23;1212;-81
2024/02/13 00:04:16;;;;;;;7.13;4.50;;;;;;;;;;602227;23;1366;-80
2024/02/13 00:04:33;;;;;;;6.60;4.00;;;;;;;;;;602781;23;882;-80
2024/02/13 00:04:48;;;;;;;7.13;4.22;;;;;;;;;;605338;23;947;-80
2024/02/13 00:05:07;;;;;;;8.35;4.50;;;;;;;;;;603883;23;1113;-80
2024/02/13 00:05:22;;;;;;;7.60;4.28;;;;;;;;;;603824;23;919;-81
2024/02/13 00:05:39;;;;;;;7.22;4.22;;;;;;;;;;604298;23;954;-79
2024/02/13 00:05:54;;;;;;;8.18;4.10;;;;;;;;;;603675;23;1086;-81
2024/02/13 00:06:10;;;;;;;7.72;4.13;;;;;;;;;;603021;23;1188;-82
2024/02/13 00:06:25;;;;;;;7.27;4.20;;;;;;;;;;599672;23;1947;-80
2024/02/13 00:06:42;;;;;;;6.93;3.97;;;;;;;;;;601869;23;1065;-79
2024/02/13 00:06:57;;;;;;;6.57;3.90;;;;;;;;;;602036;23;1181;-81
2024/02/13 00:07:13;;;;;;;7.47;4.20;;;;;;;;;;604522;23;1325;-80
2024/02/13 00:07:29;;;;;;;7.97;4.38;;;;;;;;;;603215;23;1154;-79
2024/02/13 00:07:44;;;;;;;6.90;4.20;;;;;;;;;;605134;23;1273;-81
2024/02/13 00:08:00;;;;;;;6.30;4.00;;;;;;;;;;604428;23;1101;-80
2024/02/13 00:08:17;;;;;;;6.80;3.95;;;;;;;;;;604990;23;1129;-80
2024/02/13 00:08:32;;;;;;;7.05;3.92;;;;;;;;;;600084;23;848;-80
2024/02/13 00:08:48;;;;;;;7.40;4.13;;;;;;;;;;602436;23;1234;-80
2024/02/13 00:09:06;;;;;;;6.53;3.97;;;;;;;;;;602644;23;1143;-80
2024/02/13 00:09:22;;;;;;;5.05;3.55;;;;;;;;;;602007;23;1276;-79
2024/02/13 00:09:38;;;;;;;5.05;3.40;;;;;;;;;;604347;23;883;-81
2024/02/13 00:09:54;;;;;;;5.30;3.50;;;;;;;;;;604628;23;1102;-80
2024/02/13 00:10:11;;;;;;;7.95;3.85;;;;;;;;;;602645;23;1200;-80
2024/02/13 00:10:28;;;;;;;8.85;3.83;;;;;;;;;;599992;23;907;-79
2024/02/13 00:10:43;;;;;;;6.57;3.72;;;;;;;;;;601855;23;1299;-79
2024/02/13 00:11:03;;;;;;;4.40;3.50;;;;;;;;;;602061;23;1154;-79
2024/02/13 00:11:18;;;;;;;6.13;3.72;;;;;;;;;;602122;23;836;-80
2024/02/13 00:11:34;;;;;;;6.47;4.17;;;;;;;;;;600777;23;1075;-79
2024/02/13 00:11:50;;;;;;;7.22;4.40;;;;;;;;;;600762;23;1078;-81
2024/02/13 00:12:06;;;;;;;7.15;4.45;;;;;;;;;;603935;23;1056;-80
2024/02/13 00:12:21;;;;;;;7.20;4.43;;;;;;;;;;603313;23;1067;-80
2024/02/13 00:12:38;;;;;;;6.87;4.20;;;;;;;;;;601524;23;1067;-79
2024/02/13 00:12:54;;;;;;;7.57;4.00;;;;;;;;;;601745;23;855;-80
2024/02/13 00:13:09;;;;;;;7.88;3.85;;;;;;;;;;602231;23;983;-80
2024/02/13 00:13:25;;;;;;;6.83;3.67;;;;;;;;;;601046;23;903;-80
2024/02/13 00:13:46;;;;;;;6.53;3.70;;;;;;;;;;602295;23;1116;-80
2024/02/13 00:14:02;;;;;;;5.70;3.50;;;;;;;;;;605125;23;1370;-80
2024/02/13 00:14:19;;;;;;;6.25;3.70;;;;;;;;;;604461;23;899;-80
2024/02/13 00:14:34;;;;;;;6.00;3.88;;;;;;;;;;606171;23;981;-80
2024/02/13 00:14:51;;;;;;;8.18;3.90;;;;;;;;;;604241;23;1197;-82
2024/02/13 00:15:10;;;;;;;7.72;3.80;;;;;;;;;;605448;23;860;-80
2024/02/13 00:15:25;;;;;;;6.00;3.92;;;;;;;;;;603676;23;1064;-80
2024/02/13 00:15:41;;;;;;;6.65;3.90;;;;;;;;;;605247;23;1006;-80
2024/02/13 00:15:56;;;;;;;7.20;3.97;;;;;;;;;;604705;23;1234;-80
2024/02/13 00:16:12;;;;;;;6.67;4.17;;;;;;;;;;605442;23;745;-80
2024/02/13 00:16:27;;;;;;;7.05;4.15;;;;;;;;;;602288;23;1318;-79
2024/02/13 00:16:44;;;;;;;8.25;4.00;;;;;;;;;;606098;23;1291;-82
2024/02/13 00:16:59;;;;;;;7.15;3.90;;;;;;;;;;608442;23;1328;-81
2024/02/13 00:17:15;;;;;;;6.93;4.00;;;;;;;;;;603916;23;1223;-80
2024/02/13 00:17:31;;;;;;;7.28;3.88;;;;;;;;;;600527;23;1107;-82
2024/02/13 00:17:47;;;;;;;7.03;3.75;;;;;;;;;;602718;23;1060;-80
2024/02/13 00:18:03;;;;;;;6.88;4.00;;;;;;;;;;602832;23;1704;-79
2024/02/13 00:18:19;;;;;;;6.38;3.90;;;;;;;;;;603022;23;836;-80
2024/02/13 00:18:35;;;;;;;6.30;3.67;;;;;;;;;;600768;23;1235;-80
2024/02/13 00:18:50;;;;;;;7.60;3.83;;;;;;;;;;602289;23;1153;-81
2024/02/13 00:19:06;;;;;;;7.38;4.00;;;;;;;;;;603915;23;856;-81
2024/02/13 00:19:24;;;;;;;5.77;4.00;;;;;;;;;;603687;23;1106;-80
2024/02/13 00:19:39;;;;;;;5.88;3.80;;;;;;;;;;604218;23;1382;-81
2024/02/13 00:19:56;;;;;;;5.43;3.67;;;;;;;;;;605124;23;1188;-80
2024/02/13 00:20:14;;;;;;;6.32;3.70;;;;;;;;;;605321;23;1314;-80
2024/02/13 00:20:31;;;;;;;7.05;3.80;;;;;;;;;;604784;23;918;-80
2024/02/13 00:20:47;;;;;;;6.88;3.88;;;;;;;;;;605390;23;1251;-80
2024/02/13 00:21:02;;;;;;;6.03;3.70;;;;;;;;;;605188;23;1014;-81
2024/02/13 00:21:18;;;;;;;5.30;3.65;;;;;;;;;;604417;23;959;-80
2024/02/13 00:21:33;;;;;;;5.47;3.53;;;;;;;;;;602725;23;1009;-80
2024/02/13 00:21:49;;;;;;;5.22;3.50;;;;;;;;;;601321;23;1272;-80
2024/02/13 00:22:04;;;;;;;6.20;3.63;;;;;;;;;;603063;23;1055;-81
2024/02/13 00:22:19;;;;;;;6.43;3.53;;;;;;;;;;603827;23;1305;-79
2024/02/13 00:22:35;;;;;;;5.53;3.40;;;;;;;;;;606036;23;1376;-80
2024/02/13 00:22:53;;;;;;;5.85;3.40;;;;;;;;;;604419;23;1190;-78
2024/02/13 00:23:08;;;;;;;5.60;3.35;;;;;;;;;;605329;23;914;-80
2024/02/13 00:23:24;;;;;;;6.47;3.72;;;;;;;;;;604059;23;1081;-80
2024/02/13 00:23:39;;;;;;;7.77;3.90;;;;;;;;;;606636;23;1037;-80
2024/02/13 00:23:56;;;;;;;6.95;3.75;;;;;;;;;;605341;23;875;-77
2024/02/13 00:24:13;;;;;;;6.47;3.63;;;;;;;;;;604893;23;861;-81
2024/02/13 00:24:33;;;;;;;6.78;3.65;;;;;;;;;;602021;23;1108;-80
2024/02/13 00:24:50;;;;;;;6.32;3.50;;;;;;;;;;605096;23;961;-80
2024/02/13 00:25:06;;;;;;;5.07;3.40;;;;;;;;;;605282;23;887;-80
2024/02/13 00:25:21;;;;;;;5.80;3.67;;;;;;;;;;603531;23;887;-80
2024/02/13 00:25:37;;;;;;;6.13;3.90;;;;;;;;;;603827;23;1228;-79
2024/02/13 00:25:52;;;;;;;6.50;3.90;;;;;;;;;;606408;23;1356;-80
2024/02/13 00:26:09;;;;;;;6.65;3.80;;;;;;;;;;605052;23;1007;-81
2024/02/13 00:26:24;;;;;;;6.07;3.67;;;;;;;;;;600148;23;1231;-80
2024/02/13 00:26:43;;;;;;;6.50;3.63;;;;;;;;;;602314;23;1321;-81
2024/02/13 00:26:59;;;;;;;6.82;3.67;;;;;;;;;;602737;23;891;-80
2024/02/13 00:27:15;;;;;;;5.83;3.70;;;;;;;;;;602591;23;1018;-80
2024/02/13 00:27:32;;;;;;;5.60;3.80;;;;;;;;;;600405;23;1364;-80
2024/02/13 00:27:48;;;;;;;7.38;3.90;;;;;;;;;;600332;23;1081;-81
2024/02/13 00:28:04;;;;;;;8.27;4.00;;;;;;;;;;599899;23;1054;-81
2024/02/13 00:28:21;;;;;;;7.37;4.10;;;;;;;;;;596508;23;1284;-80
2024/02/13 00:28:37;;;;;;;7.00;3.92;;;;;;;;;;595509;23;879;-81
2024/02/13 00:28:52;;;;;;;6.50;3.95;;;;;;;;;;595475;23;1133;-80
2024/02/13 00:29:08;;;;;;;6.17;3.73;;;;;;;;;;596581;23;1105;-80
2024/02/13 00:29:23;;;;;;;5.63;3.40;;;;;;;;;;597426;23;872;-80
2024/02/13 00:29:39;;;;;;;6.00;3.80;;;;;;;;;;601832;23;1041;-79
2024/02/13 00:29:55;;;;;;;7.28;4.15;;;;;;;;;;603264;23;1053;-79
2024/02/13 00:30:12;;;;;;;7.07;3.97;;;;;;;;;;602262;23;1314;-80
2024/02/13 00:30:29;;;;;;;6.55;3.90;;;;;;;;;;600453;23;1074;-79
2024/02/13 00:30:44;;;;;;;6.35;3.97;;;;;;;;;;599350;23;997;-80
2024/02/13 00:31:00;;;;;;;6.20;4.00;;;;;;;;;;599570;23;971;-81
2024/02/13 00:31:15;;;;;;;6.35;4.00;;;;;;;;;;596371;23;1201;-80
2024/02/13 00:31:31;;;;;;;6.80;4.10;;;;;;;;;;594147;23;1135;-78
2024/02/13 00:31:50;;;;;;;7.38;4.40;;;;;;;;;;596427;23;1372;-80
2024/02/13 00:32:06;;;;;;;7.80;4.18;;;;;;;;;;596671;23;852;-80
2024/02/13 00:32:21;;;;;;;8.00;4.30;;;;;;;;;;594291;23;1226;-78
2024/02/13 00:32:40;;;;;;;7.17;4.50;;;;;;;;;;597435;23;1135;-79
2024/02/13 00:32:57;;;;;;;7.07;4.28;;;;;;;;;;599318;23;821;-80
2024/02/13 00:33:13;;;;;;;6.88;4.00;;;;;;;;;;602052;23;860;-80
2024/02/13 00:33:29;;;;;;;6.22;3.72;;;;;;;;;;600542;23;995;-80
2024/02/13 00:33:45;;;;;;;5.90;3.90;;;;;;;;;;601735;23;1151;-80
2024/02/13 00:34:00;;;;;;;6.45;4.15;;;;;;;;;;602899;23;1030;-80
2024/02/13 00:34:19;;;;;;;6.63;4.20;;;;;;;;;;602635;23;1032;-81
2024/02/13 00:34:34;;;;;;;7.07;4.05;;;;;;;;;;605844;23;1180;-80
2024/02/13 00:34:50;;;;;;;6.45;4.20;;;;;;;;;;608317;23;1055;-80
2024/02/13 00:35:08;;;;;;;6.77;4.30;;;;;;;;;;607804;23;1129;-80
2024/02/13 00:35:24;;;;;;;6.78;3.85;;;;;;;;;;606465;23;1120;-79
2024/02/13 00:35:40;;;;;;;6.18;3.80;;;;;;;;;;608114;23;1027;-79
2024/02/13 00:35:56;;;;;;;7.18;4.07;;;;;;;;;;604054;23;1189;-80
2024/02/13 00:36:12;;;;;;;6.97;4.00;;;;;;;;;;605128;23;910;-81
2024/02/13 00:36:32;;;;;;;6.60;4.18;;;;;;;;;;601825;23;1059;-81
2024/02/13 00:36:50;;;;;;;6.82;4.22;;;;;;;;;;601733;23;1076;-79
2024/02/13 00:37:08;;;;;;;5.70;3.78;;;;;;;;;;601865;23;1359;-79
2024/02/13 00:37:23;;;;;;;5.93;3.90;;;;;;;;;;598198;23;893;-80
2024/02/13 00:37:39;;;;;;;6.55;3.88;;;;;;;;;;598980;23;1155;-80
2024/02/13 00:37:54;;;;;;;5.87;3.70;;;;;;;;;;602096;23;1061;-80
2024/02/13 00:38:10;;;;;;;5.88;3.97;;;;;;;;;;602062;23;1023;-81
2024/02/13 00:38:25;;;;;;;5.97;4.07;;;;;;;;;;600249;23;1191;-79
2024/02/13 00:38:43;;;;;;;5.90;3.90;;;;;;;;;;603557;23;979;-80
2024/02/13 00:39:00;;;;;;;7.15;4.18;;;;;;;;;;605202;23;899;-79
2024/02/13 00:39:16;;;;;;;6.38;4.15;;;;;;;;;;605367;23;976;-80
2024/02/13 00:39:31;;;;;;;7.85;4.43;;;;;;;;;;603334;23;1045;-81
2024/02/13 00:39:47;;;;;;;8.53;4.40;;;;;;;;;;600816;23;1189;-81
2024/02/13 00:40:05;;;;;;;6.63;4.22;;;;;;;;;;599630;23;921;-79
2024/02/13 00:40:22;;;;;;;6.85;4.13;;;;;;;;;;601250;23;1271;-80
2024/02/13 00:40:37;;;;;;;7.75;3.85;;;;;;;;;;600731;23;907;-80
2024/02/13 00:40:53;;;;;;;7.05;3.83;;;;;;;;;;601940;23;888;-81
2024/02/13 00:41:09;;;;;;;6.35;4.00;;;;;;;;;;602321;23;883;-80
2024/02/13 00:41:26;;;;;;;7.40;4.20;;;;;;;;;;601432;23;852;-80
2024/02/13 00:41:41;;;;;;;6.75;4.03;;;;;;;;;;606599;23;1344;-83
2024/02/13 00:41:57;;;;;;;6.13;4.00;;;;;;;;;;604957;23;1039;-79
2024/02/13 00:42:13;;;;;;;6.75;4.00;;;;;;;;;;603496;23;988;-79
2024/02/13 00:42:28;;;;;;;7.57;4.20;;;;;;;;;;600625;23;995;-80
2024/02/13 00:42:49;;;;;;;7.28;4.40;;;;;;;;;;604973;23;997;-79
2024/02/13 00:43:04;;;;;;;7.32;4.45;;;;;;;;;;605047;23;1045;-80
2024/02/13 00:43:20;;;;;;;6.75;4.30;;;;;;;;;;605166;23;1366;-81
2024/02/13 00:43:36;;;;;;;6.17;4.10;;;;;;;;;;604928;23;829;-80
2024/02/13 00:43:52;;;;;;;6.20;4.00;;;;;;;;;;605390;23;875;-80
2024/02/13 00:44:07;;;;;;;5.43;3.90;;;;;;;;;;605763;23;919;-80
2024/02/13 00:44:24;;;;;;;5.30;3.92;;;;;;;;;;605610;23;943;-80
2024/02/13 00:44:40;;;;;;;5.28;3.83;;;;;;;;;;606048;23;1401;-81
2024/02/13 00:44:58;;;;;;;5.03;3.75;;;;;;;;;;601903;23;1345;-81
2024/02/13 00:45:13;;;;;;;7.03;3.97;;;;;;;;;;602154;23;905;-80
2024/02/13 00:45:29;;;;;;;6.87;3.87;;;;;;;;;;600113;23;1089;-80
2024/02/13 00:45:47;;;;;;;6.45;4.00;;;;;;;;;;602185;23;1024;-80
2024/02/13 00:46:03;;;;;;;6.05;3.80;;;;;;;;;;602181;23;1443;-79
2024/02/13 00:46:19;;;;;;;5.00;3.38;;;;;;;;;;601554;23;1025;-79
2024/02/13 00:46:34;;;;;;;4.97;3.38;;;;;;;;;;597664;23;1925;-79
2024/02/13 00:46:52;;;;;;;5.20;3.70;;;;;;;;;;600961;23;815;-79
2024/02/13 00:47:08;;;;;;;6.50;3.90;;;;;;;;;;599496;23;1191;-81
2024/02/13 00:47:23;;;;;;;6.82;4.03;;;;;;;;;;598091;23;1077;-80
2024/02/13 00:47:40;;;;;;;6.20;4.07;;;;;;;;;;598518;23;1082;-80
2024/02/13 00:47:56;;;;;;;7.50;4.18;;;;;;;;;;601194;23;903;-81
2024/02/13 00:48:12;;;;;;;7.22;4.13;;;;;;;;;;599969;23;1134;-80
2024/02/13 00:48:30;;;;;;;6.47;4.07;;;;;;;;;;599487;23;1015;-80
2024/02/13 00:48:45;;;;;;;6.25;4.10;;;;;;;;;;599923;23;1337;-80
2024/02/13 00:49:03;;;;;;;6.43;4.00;;;;;;;;;;597892;23;1193;-79
2024/02/13 00:49:19;;;;;;;7.65;4.15;;;;;;;;;;599087;23;878;-79
2024/02/13 00:49:35;;;;;;;7.22;4.28;;;;;;;;;;597706;23;975;-80
2024/02/13 00:49:51;;;;;;;6.57;4.20;;;;;;;;;;599419;23;1355;-80
2024/02/13 00:50:08;;;;;;;6.93;4.30;;;;;;;;;;600693;23;1059;-79
2024/02/13 00:50:24;;;;;;;6.63;4.40;;;;;;;;;;600961;23;1076;-79
2024/02/13 00:50:40;;;;;;;6.30;4.55;;;;;;;;;;603010;23;1039;-81
2024/02/13 00:50:56;;;;;;;7.93;4.60;;;;;;;;;;604882;23;1123;-79
2024/02/13 00:51:11;;;;;;;7.22;4.30;;;;;;;;;;603855;23;1200;-79
2024/02/13 00:51:27;;;;;;;5.90;4.20;;;;;;;;;;604024;23;1281;-79
2024/02/13 00:51:42;;;;;;;7.30;4.35;;;;;;;;;;602501;23;1072;-79
2024/02/13 00:51:57;;;;;;;8.17;4.50;;;;;;;;;;602491;23;978;-79
2024/02/13 00:52:13;;;;;;;7.32;4.55;;;;;;;;;;602408;23;1160;-80
2024/02/13 00:52:28;;;;;;;6.23;4.50;;;;;;;;;;596359;23;1211;-81
2024/02/13 00:52:44;;;;;;;5.28;4.13;;;;;;;;;;602306;23;1185;-79
2024/02/13 00:52:59;;;;;;;5.53;4.20;;;;;;;;;;604591;23;1011;-80
2024/02/13 00:53:15;;;;;;;5.90;4.25;;;;;;;;;;605631;23;1176;-79
2024/02/13 00:53:31;;;;;;;6.05;4.05;;;;;;;;;;599418;23;1318;-80
2024/02/13 00:53:46;;;;;;;6.47;4.40;;;;;;;;;;598738;23;1499;-79
2024/02/13 00:54:02;;;;;;;6.95;4.40;;;;;;;;;;599321;23;1079;-80
2024/02/13 00:54:18;;;;;;;7.33;4.17;;;;;;;;;;597818;23;1229;-79
2024/02/13 00:54:33;;;;;;;7.30;4.05;;;;;;;;;;597881;23;1186;-80
2024/02/13 00:54:49;;;;;;;6.90;4.10;;;;;;;;;;598840;23;1180;-79
2024/02/13 00:55:05;;;;;;;7.35;4.38;;;;;;;;;;597715;23;825;-80
2024/02/13 00:55:21;;;;;;;7.38;4.30;;;;;;;;;;595281;23;1280;-79
2024/02/13 00:55:37;;;;;;;5.68;4.00;;;;;;;;;;595533;23;794;-81
2024/02/13 00:55:53;;;;;;;5.93;4.20;;;;;;;;;;598576;23;1000;-81
2024/02/13 00:56:08;;;;;;;6.57;4.20;;;;;;;;;;600024;23;1035;-80
2024/02/13 00:56:24;;;;;;;6.55;4.10;;;;;;;;;;600548;23;1279;-79
2024/02/13 00:56:41;;;;;;;5.80;4.00;;;;;;;;;;599780;23;921;-80
2024/02/13 00:56:56;;;;;;;7.50;4.10;;;;;;;;;;602299;23;911;-81
2024/02/13 00:57:12;;;;;;;7.63;4.50;;;;;;;;;;603135;23;1133;-81
2024/02/13 00:57:28;;;;;;;6.30;4.38;;;;;;;;;;603055;23;1126;-80
2024/02/13 00:57:46;;;;;;;6.40;4.35;;;;;;;;;;605772;23;962;-80
2024/02/13 00:58:01;;;;;;;7.35;4.47;;;;;;;;;;605212;23;1172;-80
2024/02/13 00:58:17;;;;;;;7.53;4.53;;;;;;;;;;605249;23;820;-79
2024/02/13 00:58:36;;;;;;;6.47;4.43;;;;;;;;;;603978;23;988;-80
2024/02/13 00:58:51;;;;;;;6.25;4.30;;;;;;;;;;608050;23;891;-80
2024/02/13 00:59:07;;;;;;;6.13;4.30;;;;;;;;;;606334;23;1099;-80
2024/02/13 00:59:22;;;;;;;7.18;4.68;;;;;;;;;;601418;23;1346;-79
2024/02/13 00:59:40;;;;;;;7.83;4.80;;;;;;;;;;601829;23;836;-80
2024/02/13 00:59:55;;;;;;;6.88;4.57;;;;;;;;;;604437;23;907;-81
2024/02/13 01:00:11;;;;;;;7.13;4.67;;;;;;;;;;604789;23;1165;-80
2024/02/13 01:00:26;;;;;;;7.25;4.53;;;;;;;;;;603499;23;902;-79
2024/02/13 01:00:42;;;;;;;6.83;4.20;;;;;;;;;;604490;23;848;-80
2024/02/13 01:01:00;;;;;;;7.15;4.20;;;;;;;;;;603971;23;1038;-81
2024/02/13 01:01:15;;;;;;;5.93;4.10;;;;;;;;;;602973;23;1390;-80
2024/02/13 01:01:31;;;;;;;5.43;3.90;;;;;;;;;;602613;23;1029;-80
2024/02/13 01:01:47;;;;;;;7.15;4.20;;;;;;;;;;604915;23;1156;-80
2024/02/13 01:02:03;;;;;;;8.00;4.50;;;;;;;;;;604725;23;1017;-81
2024/02/13 01:02:18;;;;;;;7.25;4.40;;;;;;;;;;605078;23;1200;-79
2024/02/13 01:02:34;;;;;;;6.73;4.30;;;;;;;;;;600555;23;951;-79
2024/02/13 01:02:55;;;;;;;6.57;4.30;;;;;;;;;;601493;23;1102;-80
2024/02/13 01:03:10;;;;;;;5.88;4.20;;;;;;;;;;599453;23;942;-78
2024/02/13 01:03:26;;;;;;;4.87;3.70;;;;;;;;;;599980;23;953;-79
2024/02/13 01:03:41;;;;;;;5.22;3.58;;;;;;;;;;598856;23;1319;-80
2024/02/13 01:03:57;;;;;;;5.38;3.78;;;;;;;;;;596837;23;1308;-79
2024/02/13 01:04:12;;;;;;;5.90;4.10;;;;;;;;;;598938;23;1217;-80
2024/02/13 01:04:29;;;;;;;6.27;4.17;;;;;;;;;;597590;23;908;-79
2024/02/13 01:04:45;;;;;;;5.22;4.00;;;;;;;;;;599361;23;1031;-80
2024/02/13 01:05:00;;;;;;;5.82;4.28;;;;;;;;;;600778;23;1012;-80
2024/02/13 01:05:16;;;;;;;8.17;4.43;;;;;;;;;;601564;23;1263;-79
2024/02/13 01:05:32;;;;;;;9.38;4.55;;;;;;;;;;599850;23;1157;-79
2024/02/13 01:05:49;;;;;;;7.47;4.18;;;;;;;;;;602598;23;954;-80
2024/02/13 01:06:06;;;;;;;6.22;4.13;;;;;;;;;;605320;23;829;-78
2024/02/13 01:06:22;;;;;;;8.23;4.32;;;;;;;;;;602940;23;1195;-80
2024/02/13 01:06:37;;;;;;;7.40;4.25;;;;;;;;;;603589;23;1973;-80
2024/02/13 01:06:53;;;;;;;6.07;4.30;;;;;;;;;;601773;23;1364;-79
2024/02/13 01:07:09;;;;;;;6.17;4.23;;;;;;;;;;602420;23;1183;-80
2024/02/13 01:07:24;;;;;;;6.35;4.22;;;;;;;;;;602732;23;1248;-78
2024/02/13 01:07:39;;;;;;;6.50;4.10;;;;;;;;;;605162;23;1153;-79
2024/02/13 01:07:55;;;;;;;6.35;4.07;;;;;;;;;;603749;23;1067;-81
2024/02/13 01:08:10;;;;;;;6.60;4.17;;;;;;;;;;605406;23;1016;-79
2024/02/13 01:08:26;;;;;;;7.20;4.30;;;;;;;;;;603302;23;871;-79
2024/02/13 01:08:43;;;;;;;6.60;4.10;;;;;;;;;;604713;23;1212;-80
2024/02/13 01:09:00;;;;;;;6.18;4.07;;;;;;;;;;605510;23;1745;-80
2024/02/13 01:09:15;;;;;;;7.05;4.28;;;;;;;;;;603508;23;1006;-79
2024/02/13 01:09:31;;;;;;;6.57;4.10;;;;;;;;;;601103;23;1117;-80
2024/02/13 01:09:46;;;;;;;5.93;4.17;;;;;;;;;;602879;23;900;-80
2024/02/13 01:10:05;;;;;;;6.28;4.35;;;;;;;;;;605449;23;900;-80
2024/02/13 01:10:21;;;;;;;6.10;4.35;;;;;;;;;;604069;23;911;-79
2024/02/13 01:10:36;;;;;;;6.10;4.20;;;;;;;;;;606929;23;1205;-81
2024/02/13 01:10:52;;;;;;;6.43;4.20;;;;;;;;;;607243;23;995;-80
2024/02/13 01:11:07;;;;;;;6.23;4.23;;;;;;;;;;605151;23;1178;-80
2024/02/13 01:11:23;;;;;;;6.07;4.03;;;;;;;;;;603411;23;941;-79
2024/02/13 01:11:38;;;;;;;5.67;4.10;;;;;;;;;;603968;23;776;-80
2024/02/13 01:11:54;;;;;;;5.23;3.90;;;;;;;;;;604655;23;994;-80
2024/02/13 01:12:09;;;;;;;5.53;3.87;;;;;;;;;;604494;23;1103;-80
2024/02/13 01:12:24;;;;;;;7.07;4.28;;;;;;;;;;602547;23;962;-80
2024/02/13 01:12:40;;;;;;;7.23;4.30;;;;;;;;;;602544;23;753;-81
2024/02/13 01:12:55;;;;;;;6.20;4.20;;;;;;;;;;605097;23;1299;-80
2024/02/13 01:13:12;;;;;;;6.32;4.28;;;;;;;;;;604388;23;1011;-81
2024/02/13 01:13:27;;;;;;;6.65;4.40;;;;;;;;;;601097;23;1062;-79
2024/02/13 01:13:42;;;;;;;8.00;4.47;;;;;;;;;;603031;23;1008;-79
2024/02/13 01:13:59;;;;;;;9.30;4.67;;;;;;;;;;605855;23;739;-81
2024/02/13 01:14:16;;;;;;;8.20;4.65;;;;;;;;;;608486;23;1322;-81
2024/02/13 01:14:31;;;;;;;7.20;4.60;;;;;;;;;;605949;23;905;-80
2024/02/13 01:14:48;;;;;;;8.10;4.65;;;;;;;;;;608101;23;1251;-80
2024/02/13 01:15:04;;;;;;;7.35;4.45;;;;;;;;;;608055;23;896;-80
2024/02/13 01:15:21;;;;;;;8.25;4.50;;;;;;;;;;604331;23;1289;-79
2024/02/13 01:15:37;;;;;;;8.88;4.78;;;;;;;;;;605160;23;804;-82
2024/02/13 01:15:53;;;;;;;7.32;4.80;;;;;;;;;;602315;23;1187;-80
2024/02/13 01:16:08;;;;;;;8.33;4.87;;;;;;;;;;602560;23;812;-79
2024/02/13 01:16:23;;;;;;;8.40;4.68;;;;;;;;;;599502;23;997;-80
2024/02/13 01:16:40;;;;;;;6.87;4.33;;;;;;;;;;601911;23;959;-80
2024/02/13 01:16:56;;;;;;;6.80;4.40;;;;;;;;;;602014;23;992;-80
2024/02/13 01:17:11;;;;;;;6.33;4.47;;;;;;;;;;602450;23;1001;-80
2024/02/13 01:17:28;;;;;;;5.53;4.35;;;;;;;;;;603561;23;1128;-80
2024/02/13 01:17:44;;;;;;;6.10;4.30;;;;;;;;;;606166;23;1187;-79
2024/02/13 01:17:59;;;;;;;6.43;4.53;;;;;;;;;;608623;23;844;-80
2024/02/13 01:18:15;;;;;;;6.38;4.50;;;;;;;;;;608540;23;1131;-81
2024/02/13 01:18:31;;;;;;;6.80;4.47;;;;;;;;;;607265;23;769;-81
2024/02/13 01:18:48;;;;;;;5.53;4.47;;;;;;;;;;605094;23;1251;-80
2024/02/13 01:19:04;;;;;;;6.15;4.50;;;;;;;;;;602374;23;1399;-80
2024/02/13 01:19:20;;;;;;;7.40;4.60;;;;;;;;;;601440;23;1118;-81
2024/02/13 01:19:35;;;;;;;8.18;4.63;;;;;;;;;;601165;23;833;-80
2024/02/13 01:19:51;;;;;;;7.37;4.60;;;;;;;;;;601345;23;1141;-80
2024/02/13 01:20:10;;;;;;;6.50;4.47;;;;;;;;;;602216;23;932;-81
2024/02/13 01:20:28;;;;;;;7.15;4.40;;;;;;;;;;597349;23;1390;-79
2024/02/13 01:20:43;;;;;;;6.53;4.30;;;;;;;;;;601829;23;1364;-80
2024/02/13 01:20:59;;;;;;;6.20;4.30;;;;;;;;;;602056;23;859;-81
2024/02/13 01:21:15;;;;;;;5.63;4.40;;;;;;;;;;602556;23;789;-80
2024/02/13 01:21:30;;;;;;;6.10;4.43;;;;;;;;;;596806;23;1275;-80
2024/02/13 01:21:47;;;;;;;6.60;4.50;;;;;;;;;;598905;23;1232;-80
2024/02/13 01:22:03;;;;;;;6.97;4.38;;;;;;;;;;599666;23;1143;-79
2024/02/13 01:22:18;;;;;;;6.68;4.40;;;;;;;;;;598804;23;1532;-79
2024/02/13 01:22:35;;;;;;;6.33;4.60;;;;;;;;;;597378;23;985;-81
2024/02/13 01:22:53;;;;;;;6.07;4.50;;;;;;;;;;600241;23;887;-80
2024/02/13 01:23:11;;;;;;;7.00;4.63;;;;;;;;;;599339;23;828;-79
2024/02/13 01:23:28;;;;;;;7.85;4.90;;;;;;;;;;599927;23;871;-79
2024/02/13 01:23:44;;;;;;;7.03;4.75;;;;;;;;;;599548;23;1345;-80
2024/02/13 01:23:59;;;;;;;7.68;4.63;;;;;;;;;;601481;23;1089;-79
2024/02/13 01:24:15;;;;;;;7.83;4.20;;;;;;;;;;603652;23;1187;-81
2024/02/13 01:24:34;;;;;;;7.63;4.05;;;;;;;;;;602499;23;1083;-79
2024/02/13 01:24:50;;;;;;;7.22;4.38;;;;;;;;;;605047;23;959;-80
2024/02/13 01:25:09;;;;;;;6.28;4.22;;;;;;;;;;605152;23;863;-79
2024/02/13 01:25:25;;;;;;;6.32;4.40;;;;;;;;;;604029;23;864;-80
2024/02/13 01:25:40;;;;;;;7.27;4.60;;;;;;;;;;605088;23;909;-81
2024/02/13 01:25:56;;;;;;;7.53;4.50;;;;;;;;;;606625;23;899;-80
2024/02/13 01:26:13;;;;;;;7.07;4.47;;;;;;;;;;607960;23;998;-80
2024/02/13 01:26:29;;;;;;;7.85;4.68;;;;;;;;;;603369;23;1925;-80
2024/02/13 01:26:44;;;;;;;6.47;4.50;;;;;;;;;;603833;23;1268;-79
2024/02/13 01:27:01;;;;;;;6.15;4.45;;;;;;;;;;605584;23;1178;-80
2024/02/13 01:27:18;;;;;;;7.25;5.00;;;;;;;;;;604994;23;1423;-80
2024/02/13 01:27:35;;;;;;;6.20;4.88;;;;;;;;;;603992;23;887;-80
2024/02/13 01:27:50;;;;;;;7.72;4.68;;;;;;;;;;602053;23;1343;-80
2024/02/13 01:28:09;;;;;;;8.27;4.60;;;;;;;;;;602012;23;989;-80
2024/02/13 01:28:25;;;;;;;7.28;4.53;;;;;;;;;;603886;23;1003;-80
2024/02/13 01:28:41;;;;;;;7.97;4.60;;;;;;;;;;603263;23;828;-80
2024/02/13 01:28:56;;;;;;;7.87;4.50;;;;;;;;;;603609;23;1078;-80
2024/02/13 01:29:14;;;;;;;6.88;4.53;;;;;;;;;;605409;23;1028;-80
2024/02/13 01:29:29;;;;;;;7.45;4.82;;;;;;;;;;603511;23;1064;-80
2024/02/13 01:29:46;;;;;;;7.03;4.63;;;;;;;;;;603163;23;992;-80
2024/02/13 01:30:01;;;;;;;6.65;4.50;;;;;;;;;;601263;23;1354;-80
2024/02/13 01:30:17;;;;;;;7.15;4.53;;;;;;;;;;602522;23;861;-81
2024/02/13 01:30:34;;;;;;;7.35;4.47;;;;;;;;;;599828;23;987;-80
2024/02/13 01:30:50;;;;;;;6.93;4.30;;;;;;;;;;602565;23;903;-80
2024/02/13 01:31:05;;;;;;;6.30;4.20;;;;;;;;;;602133;23;1245;-81
2024/02/13 01:31:22;;;;;;;6.35;4.40;;;;;;;;;;603065;23;1299;-79
2024/02/13 01:31:38;;;;;;;5.50;4.30;;;;;;;;;;603977;23;816;-80
2024/02/13 01:31:53;;;;;;;5.03;4.07;;;;;;;;;;606074;23;1173;-80
2024/02/13 01:32:09;;;;;;;6.32;4.18;;;;;;;;;;607510;23;1037;-79
2024/02/13 01:32:24;;;;;;;7.10;4.37;;;;;;;;;;604501;23;876;-79
2024/02/13 01:32:40;;;;;;;6.43;4.13;;;;;;;;;;604827;23;1138;-81
2024/02/13 01:32:55;;;;;;;5.80;3.85;;;;;;;;;;603291;23;1303;-80
2024/02/13 01:33:11;;;;;;;6.13;4.00;;;;;;;;;;605551;23;785;-80
2024/02/13 01:33:26;;;;;;;6.78;4.25;;;;;;;;;;603147;23;1132;-79
2024/02/13 01:33:43;;;;;;;7.23;4.40;;;;;;;;;;601765;23;1234;-80
2024/02/13 01:33:59;;;;;;;7.03;4.35;;;;;;;;;;599558;23;1043;-80
2024/02/13 01:34:15;;;;;;;6.45;4.32;;;;;;;;;;598599;23;903;-80
2024/02/13 01:34:30;;;;;;;6.43;4.40;;;;;;;;;;600868;23;1356;-80
2024/02/13 01:34:46;;;;;;;7.20;4.50;;;;;;;;;;604495;23;898;-80
2024/02/13 01:35:01;;;;;;;6.53;4.60;;;;;;;;;;601591;23;1118;-79
2024/02/13 01:35:18;;;;;;;5.43;4.50;;;;;;;;;;601741;23;903;-79
2024/02/13 01:35:34;;;;;;;6.90;4.50;;;;;;;;;;601766;23;1215;-80
2024/02/13 01:35:50;;;;;;;7.30;4.30;;;;;;;;;;601710;23;1367;-80
2024/02/13 01:36:07;;;;;;;7.25;4.40;;;;;;;;;;602243;23;1236;-80
2024/02/13 01:36:22;;;;;;;7.30;4.75;;;;;;;;;;600750;23;1010;-79
2024/02/13 01:36:38;;;;;;;6.80;4.50;;;;;;;;;;602032;23;1022;-79
2024/02/13 01:36:55;;;;;;;6.63;4.35;;;;;;;;;;601825;23;1045;-80
2024/02/13 01:37:10;;;;;;;6.25;4.50;;;;;;;;;;602467;23;824;-80
2024/02/13 01:37:25;;;;;;;6.27;4.53;;;;;;;;;;600184;23;1034;-79
2024/02/13 01:37:41;;;;;;;6.83;4.50;;;;;;;;;;600051;23;946;-80
2024/02/13 01:37:56;;;;;;;7.45;4.43;;;;;;;;;;602306;23;1386;-80
2024/02/13 01:38:12;;;;;;;6.53;4.07;;;;;;;;;;604737;23;995;-80
2024/02/13 01:38:29;;;;;;;5.90;3.75;;;;;;;;;;599921;23;1412;-81
2024/02/13 01:38:44;;;;;;;6.85;4.10;;;;;;;;;;604819;23;1147;-80
2024/02/13 01:39:03;;;;;;;7.47;4.50;;;;;;;;;;602530;23;1029;-79
2024/02/13 01:39:18;;;;;;;6.18;4.32;;;;;;;;;;604492;23;895;-80
2024/02/13 01:39:34;;;;;;;5.83;4.17;;;;;;;;;;602829;23;797;-80
2024/02/13 01:39:49;;;;;;;5.60;4.10;;;;;;;;;;601519;23;1289;-86
2024/02/13 01:40:06;;;;;;;5.87;4.10;;;;;;;;;;602232;23;1033;-80
2024/02/13 01:40:22;;;;;;;6.03;4.25;;;;;;;;;;596945;23;1293;-80